Aviation Digital Data Service (ADDS)

Output produced by METARs form (0231 UTC 25 January 2020)
found at http://www.aviationweather.gov/metar/data/
 
Forecast for: WMKC (KOTA BHARU/SULTA, MY)
Text: TAF WMKC 242300Z 2500/2600 VRB03KT 9999 FEW020
Forecast period: 0000 to 0400 UTC 25 January 2020
Forecast type: FROM: standard forecast or significant change
Winds: variable direction winds at 3 MPH (3 knots; 1.5 m/s)
Visibility: 6 or more miles 10+ km)
Ceiling: at least 12,000 feet AGL
Clouds: few clouds at 2000 feet AGL
Weather: no significant weather forecast for this period
Text: BECMG 2504/2505 09006KT FEW018
Forecast period: 0400 to 1400 UTC 25 January 2020
Forecast type: BECOMING: Conditions expected to become as follows by 0500 UTC 25 January 2020
Winds: from the E (90 degrees) at 7 MPH (6 knots; 3.1 m/s)
Visibility: 6 or more miles 10+ km)
Ceiling: at least 12,000 feet AGL
Clouds: few clouds at 1800 feet AGL
Weather: no significant weather forecast for this period
Text: BECMG 2514/2515 VRB03KT FEW020
Forecast period: 1400 UTC 25 January 2020 to 0000 UTC 26 January 2020
Forecast type: BECOMING: Conditions expected to become as follows by 1500 UTC 25 January 2020
Winds: variable direction winds at 3 MPH (3 knots; 1.5 m/s)
Visibility: 6 or more miles 10+ km)
Ceiling: at least 12,000 feet AGL
Clouds: few clouds at 2000 feet AGL
Weather: no significant weather forecast for this period